Terminal Aerodrome Forecast
Issued by NWS

Home | Current Version | Previous Version | Text Only | Print | Product List | Glossary On
Versions: 1 2 3 4 5 6 7 8 9 10 11 12 13 14 15 16 17 18 19 20 21 22 23 24 25
000
FTUS43 KDLH 240323 AAC
TAFHYR
TAF AMD
KHYR 240323Z 2403/2424 19006KT P6SM VCSH SCT060 BKN090
      TEMPO 2403/2405 5SM -TSRA SCT020 BKN035CB
     FM240700 VRB03KT 5SM BR BKN015 OVC070
      TEMPO 2409/2412 1SM BR
     FM241400 22005KT P6SM BKN025 OVC060
     FM241600 23004KT P6SM BKN060=

USA.gov is the U.S. government's official web portal to all federal, state and local government web resources and services.